Time;durP1;ratioP1;P1;durP2;ratioP2;P2;SDS_P1;SDS_P2;PMS_P1;PMS_P2;Temp;Humidity;BMP_temperature;BMP_pressure;BME280_temperature;BME280_humidity;BME280_pressure;Samples;Min_cycle;Max_cycle;Signal;HPM_P1;HPM_P2
2022/06/18 00:01:33;;;;;;;5.18;3.25;;;18.00;99.90;;;;;;4948700;29;20027;-87
2022/06/18 00:04:02;;;;;;;6.45;3.00;;;18.00;99.90;;;;;;4951443;28;20044;-87
2022/06/18 00:06:30;;;;;;;4.70;2.63;;;18.00;99.90;;;;;;4958069;28;20020;-85
2022/06/18 00:08:57;;;;;;;7.47;3.22;;;17.90;99.90;;;;;;4958106;28;20036;-85
2022/06/18 00:14:07;;;;;;;6.78;2.95;;;17.90;99.90;;;;;;4947960;29;20114;-88
2022/06/18 00:16:33;;;;;;;3.47;2.53;;;17.90;99.90;;;;;;4948846;29;20035;-87
2022/06/18 00:18:58;;;;;;;4.90;2.95;;;17.90;99.90;;;;;;4949446;29;20015;-85
2022/06/18 00:21:26;;;;;;;6.25;2.90;;;17.90;99.90;;;;;;4954831;29;20032;-86
2022/06/18 00:23:52;;;;;;;4.22;2.85;;;17.80;99.90;;;;;;4956539;28;20051;-86
2022/06/18 00:26:18;;;;;;;4.88;3.05;;;17.80;99.90;;;;;;4956140;29;20044;-83
2022/06/18 00:28:44;;;;;;;4.80;3.03;;;17.80;99.90;;;;;;4957801;29;20036;-84
2022/06/18 00:31:10;;;;;;;4.32;3.10;;;17.80;99.90;;;;;;4942990;29;20044;-85
2022/06/18 00:33:39;;;;;;;12.93;3.10;;;17.80;99.90;;;;;;4959937;28;20046;-86
2022/06/18 00:36:09;;;;;;;6.47;2.88;;;17.90;99.90;;;;;;4959711;28;20016;-83
2022/06/18 00:38:39;;;;;;;3.20;2.80;;;17.90;99.90;;;;;;4959532;28;20032;-83
2022/06/18 00:41:08;;;;;;;6.70;3.47;;;17.90;99.90;;;;;;4960224;28;20026;-83
2022/06/18 00:43:40;;;;;;;7.32;2.83;;;18.00;99.90;;;;;;4959838;28;20012;-85
2022/06/18 00:46:22;;;;;;;5.20;2.95;;;18.00;99.90;;;;;;4959746;28;20067;-84
2022/06/18 00:49:11;;;;;;;6.30;3.13;;;18.00;99.90;;;;;;4959801;28;20031;-84
2022/06/18 00:52:08;;;;;;;7.00;3.38;;;18.00;99.90;;;;;;4959777;28;20039;-85
2022/06/18 00:54:45;;;;;;;6.15;2.85;;;17.90;99.90;;;;;;4956009;28;20087;-86
2022/06/18 00:57:20;;;;;;;10.43;3.50;;;17.90;99.90;;;;;;4960263;28;20016;-85
2022/06/18 00:59:59;;;;;;;4.40;2.83;;;17.80;99.90;;;;;;4959917;28;20023;-83
2022/06/18 01:02:34;;;;;;;7.50;3.05;;;17.80;99.90;;;;;;4959483;28;20024;-85
2022/06/18 01:05:00;;;;;;;6.40;3.10;;;17.80;99.90;;;;;;4958911;28;20075;-85
2022/06/18 01:07:35;;;;;;;7.30;3.33;;;17.70;99.90;;;;;;4957999;28;20038;-84
2022/06/18 01:10:04;;;;;;;8.20;3.20;;;17.70;99.90;;;;;;4957365;28;20050;-85
2022/06/18 01:12:31;;;;;;;4.07;2.85;;;17.70;99.90;;;;;;4958851;29;20027;-86
2022/06/18 01:15:02;;;;;;;5.60;2.72;;;17.70;99.90;;;;;;4961066;28;20044;-85
2022/06/18 01:17:32;;;;;;;6.20;3.10;;;17.60;99.90;;;;;;4958391;28;20062;-85
2022/06/18 01:20:00;;;;;;;8.57;3.30;;;17.60;99.90;;;;;;4951366;29;20039;-88
2022/06/18 01:23:01;;;;;;;9.32;3.00;;;17.60;99.90;;;;;;4950891;29;20031;-88
2022/06/18 01:25:28;;;;;;;7.20;3.03;;;17.60;99.90;;;;;;4953394;29;20039;-85
2022/06/18 01:27:55;;;;;;;6.43;3.15;;;17.50;99.90;;;;;;4959457;28;20040;-85
2022/06/18 01:30:33;;;;;;;4.93;2.95;;;17.50;99.90;;;;;;4940899;29;20020;-86
2022/06/18 01:33:01;;;;;;;6.13;3.25;;;17.50;99.90;;;;;;4960429;28;20030;-84
2022/06/18 01:35:29;;;;;;;3.47;2.72;;;17.50;99.90;;;;;;4961840;28;20020;-85
2022/06/18 01:37:59;;;;;;;4.50;2.92;;;17.50;99.90;;;;;;4960010;29;20023;-84
2022/06/18 01:43:58;;;;;;;6.75;3.08;;;17.40;99.90;;;;;;4943760;29;20115;-86
2022/06/18 01:46:27;;;;;;;4.95;2.65;;;17.50;99.90;;;;;;4956589;28;20082;-86
2022/06/18 01:48:54;;;;;;;3.28;2.60;;;17.50;99.90;;;;;;4953680;29;20027;-87
2022/06/18 01:51:30;;;;;;;5.07;2.80;;;17.50;99.90;;;;;;4952010;29;20039;-85
2022/06/18 01:54:04;;;;;;;4.00;2.60;;;17.40;99.90;;;;;;4953981;29;20042;-86
2022/06/18 01:56:36;;;;;;;6.05;3.33;;;17.40;99.90;;;;;;4954082;29;20095;-85
2022/06/18 01:59:15;;;;;;;6.97;2.85;;;17.40;99.90;;;;;;4936532;29;20031;-85
2022/06/18 02:01:45;;;;;;;9.57;2.72;;;17.40;99.90;;;;;;4955337;29;20068;-86
2022/06/18 02:04:13;;;;;;;5.28;3.15;;;17.30;99.90;;;;;;4961977;28;20055;-84
2022/06/18 02:06:40;;;;;;;5.93;3.05;;;17.30;99.90;;;;;;4950608;29;20031;-83
2022/06/18 02:09:13;;;;;;;4.53;2.97;;;17.30;99.90;;;;;;4954390;29;20049;-86
2022/06/18 02:11:40;;;;;;;6.28;2.83;;;17.30;99.90;;;;;;4958343;29;20032;-87
2022/06/18 02:14:09;;;;;;;6.28;2.67;;;17.30;99.90;;;;;;4949449;29;20024;-86
2022/06/18 02:16:43;;;;;;;5.35;2.55;;;17.30;99.90;;;;;;4948896;29;20512;-86
2022/06/18 02:19:14;;;;;;;9.15;2.90;;;17.30;99.90;;;;;;4952456;29;20039;-86
2022/06/18 02:21:45;;;;;;;3.85;2.45;;;17.30;99.90;;;;;;4946626;29;20036;-85
2022/06/18 02:24:11;;;;;;;7.95;2.08;;;17.30;99.90;;;;;;4915918;29;20106;-86
2022/06/18 02:26:41;;;;;;;3.25;2.17;;;17.20;99.90;;;;;;4952706;29;20024;-86
2022/06/18 02:29:16;;;;;;;6.15;2.30;;;17.20;99.90;;;;;;4959639;29;20018;-84
2022/06/18 02:31:45;;;;;;;4.47;2.45;;;17.10;99.90;;;;;;4941100;29;20044;-84
2022/06/18 02:34:16;;;;;;;3.03;2.28;;;17.00;99.90;;;;;;4960979;28;20043;-84
2022/06/18 02:36:42;;;;;;;3.75;2.50;;;17.00;99.90;;;;;;4961259;28;20121;-86
2022/06/18 02:39:32;;;;;;;3.78;2.50;;;16.90;99.90;;;;;;4950326;29;20024;-85
2022/06/18 02:42:05;;;;;;;4.80;2.55;;;16.90;99.90;;;;;;4930204;29;20023;-88
2022/06/18 02:44:31;;;;;;;7.13;2.50;;;16.80;99.90;;;;;;4946566;29;20031;-88
2022/06/18 02:47:01;;;;;;;4.10;2.47;;;16.70;99.90;;;;;;4945359;29;20248;-88
2022/06/18 02:49:26;;;;;;;4.47;2.70;;;16.70;99.90;;;;;;4946836;29;20091;-86
2022/06/18 02:51:53;;;;;;;5.00;2.50;;;16.70;99.90;;;;;;4950485;29;20024;-86
2022/06/18 02:54:19;;;;;;;4.15;2.70;;;16.60;99.90;;;;;;4948398;29;20032;-86
2022/06/18 02:56:48;;;;;;;5.15;2.80;;;16.60;99.90;;;;;;4946390;29;20019;-87
2022/06/18 02:59:14;;;;;;;7.22;2.45;;;16.50;99.90;;;;;;4948736;29;20036;-85
2022/06/18 03:01:40;;;;;;;3.20;2.45;;;16.50;99.90;;;;;;4945524;29;20026;-85
2022/06/18 03:04:07;;;;;;;6.93;2.70;;;16.50;99.90;;;;;;4945124;29;20114;-86
2022/06/18 03:06:33;;;;;;;4.82;2.67;;;16.50;99.90;;;;;;4945692;29;20530;-87
2022/06/18 03:08:59;;;;;;;9.45;3.20;;;16.50;99.90;;;;;;4944185;29;20028;-85
2022/06/18 03:14:14;;;;;;;5.90;2.75;;;16.50;99.90;;;;;;4944787;29;20036;-87
2022/06/18 03:16:41;;;;;;;10.95;3.10;;;16.50;99.90;;;;;;4947473;29;20027;-86
2022/06/18 03:19:33;;;;;;;4.30;2.85;;;16.50;99.90;;;;;;4936111;29;20048;-86
2022/06/18 03:22:16;;;;;;;4.38;2.92;;;16.50;99.90;;;;;;4944551;29;20094;-85
2022/06/18 03:24:42;;;;;;;6.82;3.20;;;16.60;99.90;;;;;;4948625;29;20031;-86
2022/06/18 03:27:09;;;;;;;10.00;3.03;;;16.60;99.90;;;;;;4948562;29;20226;-85
2022/06/18 03:29:35;;;;;;;8.50;3.22;;;16.70;99.90;;;;;;4951564;29;20070;-86
2022/06/18 03:32:02;;;;;;;3.25;2.90;;;16.70;99.90;;;;;;4946272;29;20063;-87
2022/06/18 03:34:30;;;;;;;7.60;3.08;;;16.80;99.90;;;;;;4947064;29;20042;-86
2022/06/18 03:36:56;;;;;;;8.70;3.15;;;16.80;99.90;;;;;;4949413;29;20075;-86
2022/06/18 03:39:23;;;;;;;5.20;2.95;;;16.80;99.90;;;;;;4952803;28;20063;-85
2022/06/18 03:41:49;;;;;;;5.97;3.20;;;16.90;99.90;;;;;;4960850;28;20035;-82
2022/06/18 03:44:15;;;;;;;4.43;2.58;;;17.00;99.90;;;;;;4960264;28;20051;-84
2022/06/18 03:49:26;;;;;;;6.18;2.75;;;17.10;99.90;;;;;;4859244;29;20049;-80
2022/06/18 03:51:54;;;;;;;5.15;2.92;;;17.10;99.90;;;;;;4846042;29;20030;-79
2022/06/18 03:54:21;;;;;;;5.97;3.25;;;17.10;99.90;;;;;;4855990;29;20090;-78
2022/06/18 03:56:47;;;;;;;6.75;3.58;;;17.20;99.90;;;;;;4856716;29;20191;-79
2022/06/18 03:59:14;;;;;;;3.75;2.80;;;17.20;99.90;;;;;;4868291;29;20028;-79
2022/06/18 04:01:40;;;;;;;6.20;3.35;;;17.30;99.90;;;;;;4884462;29;20347;-78
2022/06/18 04:04:08;;;;;;;6.68;3.33;;;17.50;99.90;;;;;;4886413;29;20049;-80
2022/06/18 04:06:46;;;;;;;4.72;3.28;;;17.60;99.90;;;;;;4870469;29;20065;-80
2022/06/18 04:09:43;;;;;;;8.65;3.42;;;17.70;99.90;;;;;;4855842;29;20034;-79
2022/06/18 04:12:10;;;;;;;6.60;2.85;;;17.90;99.90;;;;;;4887090;29;20127;-77
2022/06/18 04:14:54;;;;;;;5.50;3.17;;;18.00;99.90;;;;;;4894651;29;20031;-79
2022/06/18 04:17:29;;;;;;;9.07;3.42;;;18.10;99.90;;;;;;4876389;29;20034;-81
2022/06/18 04:19:55;;;;;;;6.63;3.35;;;18.20;99.90;;;;;;4885635;29;20062;-79
2022/06/18 04:22:22;;;;;;;10.50;3.50;;;18.30;99.90;;;;;;4885794;29;20522;-79
2022/06/18 04:24:59;;;;;;;9.07;3.67;;;18.30;99.90;;;;;;4887295;29;20029;-80
2022/06/18 04:27:26;;;;;;;5.30;3.35;;;18.30;99.90;;;;;;4890768;29;20692;-80
2022/06/18 04:29:52;;;;;;;5.30;2.85;;;18.40;99.90;;;;;;4872687;29;20029;-79
2022/06/18 04:32:20;;;;;;;7.05;3.47;;;18.50;99.90;;;;;;4886661;29;20030;-80
2022/06/18 04:34:46;;;;;;;7.10;3.33;;;18.50;99.90;;;;;;4869350;29;20040;-78
2022/06/18 04:37:39;;;;;;;4.97;2.78;;;18.60;99.90;;;;;;4873162;29;20041;-79
2022/06/18 04:40:32;;;;;;;9.00;3.17;;;18.70;99.90;;;;;;4884018;29;20064;-78
2022/06/18 04:43:18;;;;;;;7.00;3.10;;;18.80;99.90;;;;;;4873122;29;20057;-80
2022/06/18 04:45:48;;;;;;;4.43;2.85;;;19.00;99.90;;;;;;4885134;29;20723;-78
2022/06/18 04:48:19;;;;;;;5.97;3.20;;;19.00;99.90;;;;;;4884422;29;20093;-81
2022/06/18 04:50:46;;;;;;;5.07;3.08;;;19.10;99.90;;;;;;4890570;29;20030;-77
2022/06/18 04:53:12;;;;;;;6.13;3.10;;;19.20;99.90;;;;;;4880629;29;20055;-79
2022/06/18 04:55:40;;;;;;;7.65;3.45;;;19.30;99.90;;;;;;4891488;29;20034;-78
2022/06/18 04:58:06;;;;;;;7.40;3.20;;;19.40;99.90;;;;;;4878841;29;20036;-80
2022/06/18 05:00:34;;;;;;;5.05;3.30;;;19.50;99.90;;;;;;4885233;29;20033;-79
2022/06/18 05:03:25;;;;;;;8.02;3.30;;;19.60;99.90;;;;;;4888018;29;20030;-80
2022/06/18 05:06:10;;;;;;;4.55;2.95;;;19.70;99.90;;;;;;4884908;29;20056;-78
2022/06/18 05:08:55;;;;;;;5.72;3.28;;;19.80;99.90;;;;;;4868407;29;20126;-80
2022/06/18 05:11:42;;;;;;;7.10;3.13;;;19.90;99.90;;;;;;4860509;29;20057;-80
2022/06/18 05:14:20;;;;;;;7.70;3.22;;;20.00;99.90;;;;;;4873108;29;20037;-79
2022/06/18 05:16:53;;;;;;;6.40;3.03;;;20.20;99.90;;;;;;4871528;29;20128;-80
2022/06/18 05:19:23;;;;;;;7.20;2.72;;;20.20;99.90;;;;;;4887332;29;20033;-79
2022/06/18 05:21:50;;;;;;;4.00;2.50;;;20.30;99.90;;;;;;4888275;29;20101;-81
2022/06/18 05:24:17;;;;;;;4.35;2.55;;;20.30;99.90;;;;;;4883107;29;20169;-79
2022/06/18 05:26:50;;;;;;;4.30;2.75;;;20.30;99.90;;;;;;4872290;29;20026;-80
2022/06/18 05:29:17;;;;;;;4.03;2.13;;;20.40;99.90;;;;;;4883582;29;20041;-79
2022/06/18 05:31:43;;;;;;;5.82;3.03;;;20.50;99.90;;;;;;4869296;29;20102;-79
2022/06/18 05:34:11;;;;;;;6.95;2.65;;;20.80;99.90;;;;;;4887255;29;20074;-81
2022/06/18 05:36:37;;;;;;;5.70;2.80;;;20.90;99.90;;;;;;4867741;29;20058;-81
2022/06/18 05:39:07;;;;;;;5.38;2.70;;;20.90;99.90;;;;;;4891446;29;20033;-78
2022/06/18 05:41:35;;;;;;;4.43;2.75;;;21.10;99.90;;;;;;4894655;29;20041;-79
2022/06/18 05:44:03;;;;;;;6.80;2.97;;;21.30;99.90;;;;;;4892294;29;20106;-80
2022/06/18 05:46:29;;;;;;;6.20;2.47;;;21.40;99.90;;;;;;4873942;29;20038;-80
2022/06/18 05:48:55;;;;;;;5.50;2.72;;;21.60;99.90;;;;;;4872015;29;20061;-80
2022/06/18 05:51:22;;;;;;;8.35;2.92;;;22.00;99.90;;;;;;4884827;29;20117;-81
2022/06/18 05:53:48;;;;;;;3.20;2.42;;;22.10;99.90;;;;;;4884587;29;20041;-81
2022/06/18 05:56:19;;;;;;;6.07;2.50;;;22.10;99.90;;;;;;4868014;29;20037;-80
2022/06/18 05:59:01;;;;;;;6.70;2.58;;;22.10;99.90;;;;;;4872093;29;20056;-82
2022/06/18 06:01:31;;;;;;;5.55;2.05;;;22.10;99.20;;;;;;4871759;29;20051;-80
2022/06/18 06:04:00;;;;;;;4.07;2.05;;;21.70;98.10;;;;;;4887148;29;20035;-83
2022/06/18 06:06:27;;;;;;;4.53;2.47;;;21.60;98.00;;;;;;4883552;29;20093;-82
2022/06/18 06:08:54;;;;;;;9.32;2.47;;;21.60;97.60;;;;;;4887009;29;20041;-82
2022/06/18 06:11:30;;;;;;;5.07;2.25;;;21.60;97.80;;;;;;4887879;29;20029;-81
2022/06/18 06:13:59;;;;;;;10.60;2.58;;;21.60;97.90;;;;;;4872034;29;20128;-79
2022/06/18 06:16:26;;;;;;;3.58;2.20;;;21.70;97.50;;;;;;4861902;29;20041;-80
2022/06/18 06:18:52;;;;;;;7.55;2.67;;;21.80;97.40;;;;;;4890177;29;20039;-81
2022/06/18 06:21:18;;;;;;;3.90;2.10;;;21.90;97.40;;;;;;4874478;29;20041;-82
2022/06/18 06:23:44;;;;;;;8.82;3.03;;;22.20;98.40;;;;;;4879440;29;20021;-80
2022/06/18 06:26:19;;;;;;;4.07;2.58;;;22.50;99.00;;;;;;4878600;29;20502;-80
2022/06/18 06:28:45;;;;;;;7.68;2.50;;;23.00;98.80;;;;;;4882720;29;20050;-81
2022/06/18 06:31:12;;;;;;;3.38;2.58;;;23.30;97.90;;;;;;4852676;29;20054;-82
2022/06/18 06:33:38;;;;;;;4.85;2.47;;;23.50;96.80;;;;;;4868911;29;20022;-81
2022/06/18 06:36:05;;;;;;;7.97;2.28;;;23.50;96.50;;;;;;4867328;29;20324;-80
2022/06/18 06:38:32;;;;;;;7.07;2.33;;;23.50;96.40;;;;;;4867429;29;20398;-80
2022/06/18 06:40:59;;;;;;;6.57;2.55;;;23.70;97.30;;;;;;4873364;29;20094;-80
2022/06/18 06:43:25;;;;;;;12.05;2.33;;;24.00;96.50;;;;;;4891020;29;20049;-79
2022/06/18 06:45:51;;;;;;;5.78;2.40;;;24.10;95.70;;;;;;4877547;29;20029;-80
2022/06/18 06:48:17;;;;;;;7.18;2.13;;;24.00;95.20;;;;;;4894541;29;20038;-82
2022/06/18 06:50:51;;;;;;;6.40;2.10;;;24.00;95.00;;;;;;4877177;29;20041;-80
2022/06/18 06:53:16;;;;;;;3.70;2.07;;;24.00;94.30;;;;;;4890593;29;20033;-80
2022/06/18 06:58:27;;;;;;;2.65;1.17;;;23.80;94.20;;;;;;4891324;29;20062;-79
2022/06/18 07:00:55;;;;;;;3.60;1.60;;;23.50;90.90;;;;;;4876750;29;20033;-79
2022/06/18 07:03:28;;;;;;;3.22;1.42;;;23.40;91.40;;;;;;4879040;29;20109;-83
2022/06/18 07:05:54;;;;;;;3.60;1.65;;;23.40;91.00;;;;;;4889864;29;20054;-79
2022/06/18 07:08:21;;;;;;;4.18;1.30;;;23.50;90.90;;;;;;4884731;29;20072;-85
2022/06/18 07:10:49;;;;;;;4.93;1.80;;;23.50;90.10;;;;;;4878875;29;20033;-85
2022/06/18 07:13:16;;;;;;;2.55;1.42;;;23.50;90.50;;;;;;4885638;29;20029;-85
2022/06/18 07:15:42;;;;;;;3.92;1.40;;;23.30;90.30;;;;;;4885125;29;20037;-83
2022/06/18 07:18:23;;;;;;;2.83;1.27;;;23.20;90.10;;;;;;4877489;29;20064;-83
2022/06/18 07:20:49;;;;;;;3.95;1.42;;;23.10;89.90;;;;;;4877799;29;20037;-85
2022/06/18 07:23:15;;;;;;;5.82;1.50;;;23.00;90.30;;;;;;4877060;29;20036;-84
2022/06/18 07:25:42;;;;;;;1.75;1.23;;;23.20;90.40;;;;;;4877581;29;20041;-83
2022/06/18 07:28:08;;;;;;;3.97;1.55;;;23.20;90.10;;;;;;4876629;29;20030;-84
2022/06/18 07:30:36;;;;;;;4.70;1.60;;;23.20;90.00;;;;;;4872798;29;20029;-82
2022/06/18 07:33:03;;;;;;;2.45;1.20;;;23.20;90.20;;;;;;4886577;29;20104;-82
2022/06/18 07:35:31;;;;;;;2.03;1.40;;;23.20;90.10;;;;;;4868400;29;20045;-83
2022/06/18 07:37:58;;;;;;;2.65;1.60;;;23.20;90.00;;;;;;4870136;29;20034;-87
2022/06/18 07:40:29;;;;;;;3.55;1.70;;;23.20;90.40;;;;;;4884469;29;20109;-84
2022/06/18 07:42:55;;;;;;;2.53;1.58;;;23.30;90.60;;;;;;4868628;29;20033;-83
2022/06/18 07:45:24;;;;;;;6.25;1.70;;;23.40;90.50;;;;;;4868407;29;20471;-85
2022/06/18 07:47:51;;;;;;;1.80;1.40;;;23.40;90.40;;;;;;4873351;29;20383;-83
2022/06/18 07:50:19;;;;;;;4.00;1.40;;;23.50;90.50;;;;;;4883204;29;20475;-83
2022/06/18 07:52:45;;;;;;;4.50;1.48;;;23.60;90.00;;;;;;4874871;29;20029;-82
2022/06/18 07:55:20;;;;;;;4.15;1.48;;;23.50;90.30;;;;;;4876202;29;20034;-85
2022/06/18 07:57:46;;;;;;;;;;;23.60;90.20;;;;;;4872230;29;20041;-82
2022/06/18 08:00:16;;;;;;;2.80;1.30;;;23.70;90.00;;;;;;4888368;29;19917;-82
2022/06/18 08:02:44;;;;;;;4.40;1.42;;;23.80;90.10;;;;;;4873871;29;20029;-82
2022/06/18 08:05:13;;;;;;;3.90;1.70;;;23.90;90.20;;;;;;4872980;29;20096;-83
2022/06/18 08:07:40;;;;;;;3.65;1.50;;;24.00;89.80;;;;;;4873945;29;20079;-83
2022/06/18 08:10:06;;;;;;;3.42;1.40;;;24.00;88.90;;;;;;4876153;29;20029;-83
2022/06/18 08:12:34;;;;;;;3.22;1.27;;;24.10;88.80;;;;;;4886440;29;20124;-81
2022/06/18 08:15:01;;;;;;;3.03;1.15;;;24.20;88.50;;;;;;4872551;29;20025;-83
2022/06/18 08:17:27;;;;;;;2.97;1.23;;;24.20;88.00;;;;;;4871999;29;20521;-83
2022/06/18 08:19:53;;;;;;;3.60;1.23;;;24.30;88.10;;;;;;4878833;29;20029;-82
2022/06/18 08:22:21;;;;;;;3.72;1.38;;;24.30;87.90;;;;;;4895655;29;20026;-83
2022/06/18 08:24:47;;;;;;;4.40;1.98;;;24.30;88.20;;;;;;4885705;29;20069;-83
2022/06/18 08:27:14;;;;;;;1.80;1.20;;;24.30;88.50;;;;;;4886236;29;20038;-85
2022/06/18 08:29:40;;;;;;;14.07;5.63;;;24.50;88.40;;;;;;4871087;29;20017;-85
2022/06/18 08:32:07;;;;;;;10.00;5.32;;;24.50;88.40;;;;;;4868273;29;20033;-86
2022/06/18 08:34:33;;;;;;;4.90;2.28;;;24.50;88.50;;;;;;4867967;29;20026;-83
2022/06/18 08:37:02;;;;;;;2.67;1.38;;;24.60;88.40;;;;;;4882055;29;20032;-85
2022/06/18 08:39:29;;;;;;;9.18;1.45;;;24.60;88.00;;;;;;4867499;29;20482;-83
2022/06/18 08:42:11;;;;;;;3.15;1.50;;;24.70;88.60;;;;;;4867660;29;20108;-85
2022/06/18 08:44:54;;;;;;;4.38;1.42;;;24.80;87.50;;;;;;4881598;29;20030;-84
2022/06/18 08:47:29;;;;;;;2.42;1.65;;;24.80;87.90;;;;;;4866934;29;20041;-84
2022/06/18 08:50:07;;;;;;;;;;;24.80;87.80;;;;;;4868642;29;20029;-84
2022/06/18 08:52:54;;;;;;;2.65;1.60;;;25.00;87.90;;;;;;4882662;29;20325;-84
2022/06/18 08:55:32;;;;;;;1.73;1.27;;;25.10;87.90;;;;;;4868513;29;20479;-85
2022/06/18 08:58:06;;;;;;;6.63;1.95;;;25.10;88.00;;;;;;4868289;29;20124;-86
2022/06/18 09:00:54;;;;;;;3.15;1.25;;;25.20;88.30;;;;;;4878369;29;20065;-83
2022/06/18 09:03:44;;;;;;;1.70;1.15;;;25.30;87.50;;;;;;4878777;29;20048;-83
2022/06/18 09:06:47;;;;;;;1.58;1.48;;;25.20;87.50;;;;;;4892185;29;20057;-83
2022/06/18 09:09:37;;;;;;;3.47;1.58;;;25.20;87.10;;;;;;4870068;29;20030;-85
2022/06/18 09:12:19;;;;;;;3.83;1.48;;;25.40;87.60;;;;;;4884111;29;20030;-83
2022/06/18 09:14:50;;;;;;;2.15;1.70;;;25.40;86.80;;;;;;4868934;29;20037;-85
2022/06/18 09:17:42;;;;;;;6.80;1.70;;;25.50;86.30;;;;;;4889757;29;20021;-83
2022/06/18 09:20:22;;;;;;;4.28;1.98;;;25.60;86.80;;;;;;4868223;29;20119;-84
2022/06/18 09:22:52;;;;;;;16.83;9.75;;;25.50;87.10;;;;;;4869085;29;20034;-84
2022/06/18 09:25:20;;;;;;;3.80;2.60;;;25.60;87.20;;;;;;4869502;29;20471;-85
2022/06/18 09:28:07;;;;;;;7.20;2.08;;;25.60;86.60;;;;;;4868393;29;20117;-85
2022/06/18 09:30:44;;;;;;;2.67;1.50;;;25.60;87.00;;;;;;4884137;29;20056;-84
2022/06/18 09:33:34;;;;;;;3.97;1.67;;;25.70;85.80;;;;;;4879218;29;20017;-85
2022/06/18 09:36:18;;;;;;;5.03;2.95;;;25.80;86.20;;;;;;4886880;29;20049;-84
2022/06/18 09:38:54;;;;;;;5.07;2.23;;;25.80;85.60;;;;;;4896654;29;20426;-84
2022/06/18 09:41:25;;;;;;;6.78;1.95;;;25.90;85.80;;;;;;4873555;29;20343;-83
2022/06/18 09:44:01;;;;;;;3.78;2.13;;;26.00;85.30;;;;;;4871206;29;20033;-86
2022/06/18 09:46:58;;;;;;;2.03;1.50;;;26.20;84.80;;;;;;4873044;29;20045;-84
2022/06/18 09:49:24;;;;;;;4.75;1.58;;;26.60;83.60;;;;;;4937264;23;20044;-89
2022/06/18 09:54:32;;;;;;;2.58;1.55;;;27.50;83.20;;;;;;4937155;29;20025;-90
2022/06/18 09:57:00;;;;;;;2.20;1.55;;;27.90;81.70;;;;;;4939799;29;20027;-89
2022/06/18 09:59:41;;;;;;;3.72;1.50;;;28.60;80.10;;;;;;4941050;29;20023;-89
2022/06/18 10:02:24;;;;;;;5.72;1.60;;;28.80;79.70;;;;;;4958666;28;20027;-90
2022/06/18 10:07:41;;;;;;;5.35;1.65;;;29.10;77.60;;;;;;4961957;28;20035;-87
2022/06/18 10:10:17;;;;;;;7.20;2.35;;;29.70;76.60;;;;;;4962252;28;20020;-89
2022/06/18 10:12:53;;;;;;;7.97;2.10;;;30.20;76.20;;;;;;4962737;28;20067;-89
2022/06/18 10:15:22;;;;;;;4.03;1.50;;;30.80;74.60;;;;;;4959764;28;20050;-91
2022/06/18 10:18:29;;;;;;;7.65;4.53;;;30.90;72.20;;;;;;4938638;29;20092;-89
2022/06/18 10:21:20;;;;;;;1.50;1.40;;;31.00;72.20;;;;;;4953266;29;20035;-90
2022/06/18 10:24:10;;;;;;;4.00;2.00;;;30.30;70.50;;;;;;4951724;29;20036;-90
2022/06/18 10:26:59;;;;;;;5.65;1.75;;;30.50;72.10;;;;;;4935010;29;20044;-87
2022/06/18 10:30:02;;;;;;;3.17;1.20;;;31.80;70.70;;;;;;4934010;29;20059;-88
2022/06/18 10:32:55;;;;;;;2.28;1.77;;;32.80;68.20;;;;;;4957090;28;20027;-89
2022/06/18 10:35:25;;;;;;;4.40;1.67;;;33.50;67.40;;;;;;4958813;28;20036;-88
2022/06/18 10:38:09;;;;;;;3.95;2.45;;;33.80;65.40;;;;;;4959535;29;20032;-91
2022/06/18 10:41:15;;;;;;;3.05;1.88;;;35.10;65.10;;;;;;4958538;29;20074;-87
2022/06/18 10:44:03;;;;;;;3.30;1.23;;;35.30;62.80;;;;;;4949433;29;20035;-89
2022/06/18 10:46:29;;;;;;;2.70;1.55;;;35.70;61.90;;;;;;4959025;28;20038;-87
2022/06/18 10:48:59;;;;;;;4.88;1.50;;;36.10;60.10;;;;;;4945158;28;20035;-88
2022/06/18 10:51:40;;;;;;;2.20;1.42;;;36.00;59.00;;;;;;4946026;29;20044;-89
2022/06/18 10:54:06;;;;;;;3.45;1.73;;;35.30;59.10;;;;;;4962400;28;20132;-87
2022/06/18 10:56:44;;;;;;;4.70;1.95;;;35.40;59.00;;;;;;4961043;28;20028;-90
2022/06/18 10:59:09;;;;;;;3.85;1.60;;;37.50;57.20;;;;;;4960550;28;20036;-89
2022/06/18 11:01:46;;;;;;;2.75;1.40;;;37.90;55.40;;;;;;4950524;29;20042;-90
2022/06/18 11:04:29;;;;;;;2.38;1.65;;;37.80;54.90;;;;;;4951055;29;20107;-89
2022/06/18 11:07:06;;;;;;;2.80;1.40;;;38.50;54.50;;;;;;4938876;29;20054;-89
2022/06/18 11:09:58;;;;;;;3.33;2.28;;;40.90;52.60;;;;;;4944640;29;20100;-89
2022/06/18 11:12:37;;;;;;;2.63;1.98;;;42.00;51.70;;;;;;4952930;29;20047;-90
2022/06/18 11:15:20;;;;;;;3.35;1.90;;;41.60;50.20;;;;;;4949417;29;20087;-89
2022/06/18 11:17:46;;;;;;;4.78;2.45;;;41.50;49.90;;;;;;4950639;29;20028;-89
2022/06/18 11:20:22;;;;;;;1.60;1.30;;;41.30;48.60;;;;;;4957035;28;20100;-89
2022/06/18 11:23:13;;;;;;;4.75;1.90;;;40.90;49.60;;;;;;4940963;29;20407;-89
2022/06/18 11:25:42;;;;;;;7.47;5.70;;;41.60;49.30;;;;;;4955435;28;20035;-90
2022/06/18 11:28:19;;;;;;;2.20;1.30;;;40.90;48.50;;;;;;4954085;29;20024;-89
2022/06/18 11:30:59;;;;;;;4.80;1.92;;;42.40;47.90;;;;;;4938090;29;20059;-89
2022/06/18 11:33:52;;;;;;;6.57;1.90;;;42.30;46.10;;;;;;4939136;29;20072;-88
2022/06/18 11:36:51;;;;;;;2.03;1.50;;;40.90;47.60;;;;;;4949024;29;20038;-89
2022/06/18 11:39:37;;;;;;;9.27;7.28;;;40.70;48.70;;;;;;4949411;29;20050;-90
2022/06/18 11:42:03;;;;;;;2.97;1.88;;;40.80;48.60;;;;;;4958650;29;20035;-89
2022/06/18 11:44:37;;;;;;;2.67;1.55;;;41.10;49.00;;;;;;4960119;28;20028;-88
2022/06/18 11:47:27;;;;;;;1.65;1.27;;;41.70;48.10;;;;;;4944567;29;20032;-89
2022/06/18 11:50:11;;;;;;;3.28;1.40;;;42.20;47.30;;;;;;4961293;28;20024;-88
2022/06/18 11:53:16;;;;;;;3.28;1.30;;;42.90;47.00;;;;;;4960801;28;20099;-90
2022/06/18 11:55:45;;;;;;;5.35;1.42;;;43.30;46.80;;;;;;4957483;28;20043;-88
2022/06/18 11:58:38;;;;;;;1.65;1.25;;;42.50;46.90;;;;;;4960381;28;20016;-88
2022/06/18 12:01:13;;;;;;;5.05;1.75;;;42.50;46.90;;;;;;4944385;28;20034;-89
2022/06/18 12:03:46;;;;;;;3.58;2.00;;;42.80;46.80;;;;;;4958866;28;20035;-90
2022/06/18 12:06:38;;;;;;;1.67;1.33;;;42.90;46.30;;;;;;4959951;28;20026;-89
2022/06/18 12:09:05;;;;;;;3.47;1.50;;;42.80;45.50;;;;;;4961368;28;20031;-88
2022/06/18 12:11:31;;;;;;;3.13;1.70;;;43.30;45.20;;;;;;4960494;28;20028;-90
2022/06/18 12:14:12;;;;;;;1.67;1.58;;;43.60;45.10;;;;;;4961173;28;20015;-90
2022/06/18 12:16:54;;;;;;;2.85;1.70;;;43.30;45.00;;;;;;4960399;28;20067;-90
2022/06/18 12:20:07;;;;;;;3.70;1.50;;;42.20;45.10;;;;;;4961065;28;20079;-89
2022/06/18 12:22:44;;;;;;;3.40;1.63;;;42.00;45.30;;;;;;4931761;28;20058;-89
2022/06/18 12:25:32;;;;;;;4.03;1.58;;;42.20;44.90;;;;;;4944316;29;20050;-89
2022/06/18 12:28:10;;;;;;;3.78;1.70;;;43.40;44.30;;;;;;4959327;28;20028;-89
2022/06/18 12:30:45;;;;;;;3.95;1.70;;;44.20;44.60;;;;;;4959735;28;20039;-89
2022/06/18 12:33:32;;;;;;;4.88;1.70;;;43.80;45.00;;;;;;4957915;28;20039;-88
2022/06/18 12:36:37;;;;;;;1.73;1.33;;;43.90;44.30;;;;;;4956197;28;20048;-90
2022/06/18 12:39:23;;;;;;;1.70;1.30;;;43.50;44.10;;;;;;4913947;29;20054;-89
2022/06/18 12:41:59;;;;;;;1.80;1.30;;;43.70;43.40;;;;;;4953396;29;20035;-90
2022/06/18 12:44:47;;;;;;;3.00;1.70;;;44.20;43.70;;;;;;4955940;29;20103;-89
2022/06/18 12:47:25;;;;;;;1.92;1.50;;;44.80;43.50;;;;;;4944245;28;20024;-89
2022/06/18 12:49:51;;;;;;;1.75;1.65;;;45.20;43.40;;;;;;4960201;28;20043;-90
2022/06/18 12:52:49;;;;;;;3.17;1.83;;;45.20;43.20;;;;;;4960878;28;20047;-88
2022/06/18 12:55:34;;;;;;;2.40;1.48;;;45.00;43.30;;;;;;4959736;28;20050;-89
2022/06/18 12:58:32;;;;;;;2.92;1.50;;;44.30;43.10;;;;;;4960095;28;20028;-90
2022/06/18 13:01:16;;;;;;;1.70;1.50;;;44.30;43.60;;;;;;4960155;28;20035;-89
2022/06/18 13:03:53;;;;;;;;;;;44.00;43.40;;;;;;4998618;23;20047;-88
2022/06/18 13:06:53;;;;;;;2.35;1.70;;;43.80;43.40;;;;;;4960375;28;19898;-90
2022/06/18 13:09:33;;;;;;;2.10;1.70;;;43.90;43.50;;;;;;4962231;28;20030;-92
2022/06/18 13:12:18;;;;;;;2.30;1.30;;;43.90;43.20;;;;;;4961422;28;20051;-91
2022/06/18 13:15:27;;;;;;;3.92;1.42;;;44.80;43.00;;;;;;4962377;28;20020;-92
2022/06/18 13:18:12;;;;;;;2.88;1.60;;;44.40;43.30;;;;;;4946879;29;20099;-91
2022/06/18 13:20:52;;;;;;;3.25;1.50;;;44.10;43.50;;;;;;4947687;29;20035;-90
2022/06/18 13:29:01;;;;;;;4.03;1.55;;;44.00;43.00;;;;;;4953110;28;20031;-90
2022/06/18 13:31:55;;;;;;;6.28;1.80;;;44.50;43.40;;;;;;4938745;29;20055;-92
2022/06/18 13:34:35;;;;;;;5.18;1.80;;;44.30;43.60;;;;;;4953391;29;20034;-91
2022/06/18 13:37:33;;;;;;;1.83;1.50;;;44.20;43.50;;;;;;4948809;29;20028;-89
2022/06/18 13:40:09;;;;;;;1.83;1.38;;;44.70;42.80;;;;;;4945803;29;20040;-89
2022/06/18 13:42:43;;;;;;;6.13;1.88;;;44.90;42.80;;;;;;4938778;29;20050;-89
2022/06/18 13:45:09;;;;;;;5.78;1.77;;;44.30;43.10;;;;;;4938857;29;20028;-89
2022/06/18 13:48:04;;;;;;;3.55;1.60;;;43.90;43.50;;;;;;4921325;29;20024;-90
2022/06/18 13:50:44;;;;;;;10.63;1.55;;;43.50;43.80;;;;;;4924749;29;20036;-88